Time;durP1;ratioP1;P1;durP2;ratioP2;P2;SDS_P1;SDS_P2;PMS_P1;PMS_P2;Temp;Humidity;BMP_temperature;BMP_pressure;BME280_temperature;BME280_humidity;BME280_pressure;Samples;Min_cycle;Max_cycle;Signal;HPM_P1;HPM_P2
2022/04/23 00:02:02;;;;;;;15.43;7.50;;;;;;;9.94;100.00;100881.38;10349222;28;20055;-74
2022/04/23 00:07:04;;;;;;;9.88;7.18;;;;;;;9.99;100.00;100897.97;10348536;28;20030;-73
2022/04/23 00:12:04;;;;;;;9.68;6.97;;;;;;;9.86;100.00;100880.72;10347625;28;20042;-74
2022/04/23 00:17:05;;;;;;;12.45;6.93;;;;;;;9.95;100.00;100899.53;10348940;28;20054;-74
2022/04/23 00:22:05;;;;;;;13.98;7.22;;;;;;;9.92;100.00;100897.28;10348175;28;20336;-74
2022/04/23 00:27:06;;;;;;;11.70;7.22;;;;;;;9.85;100.00;100889.19;10348981;28;20034;-73
2022/04/23 00:32:07;;;;;;;12.30;7.97;;;;;;;9.79;100.00;100895.69;10349473;28;20023;-74
2022/04/23 00:37:08;;;;;;;13.27;8.05;;;;;;;9.73;100.00;100894.75;10348648;28;20042;-74
2022/04/23 00:42:11;;;;;;;13.95;7.78;;;;;;;9.62;100.00;100881.94;10346843;28;20033;-76
2022/04/23 00:47:12;;;;;;;14.75;7.43;;;;;;;9.49;100.00;100872.91;10348268;28;20023;-74
2022/04/23 00:52:12;;;;;;;16.10;8.27;;;;;;;9.52;100.00;100893.56;10320733;28;20039;-73
2022/04/23 00:57:12;;;;;;;16.00;8.70;;;;;;;9.42;100.00;100883.22;10327630;28;20026;-74
2022/04/23 01:02:13;;;;;;;14.70;8.43;;;;;;;9.39;100.00;100880.97;10344709;28;20046;-73
2022/04/23 01:07:13;;;;;;;15.35;9.25;;;;;;;9.35;100.00;100887.22;10346771;28;20034;-73
2022/04/23 01:12:14;;;;;;;18.52;8.52;;;;;;;9.31;100.00;100899.78;10345536;28;20053;-72
2022/04/23 01:17:14;;;;;;;16.10;9.55;;;;;;;9.25;100.00;100885.09;10329236;28;20046;-73
2022/04/23 01:22:15;;;;;;;14.52;9.15;;;;;;;9.16;100.00;100886.59;10345038;28;20043;-73
2022/04/23 01:27:16;;;;;;;14.25;9.05;;;;;;;9.02;100.00;100878.63;10346151;28;20042;-73
2022/04/23 01:32:16;;;;;;;15.45;9.90;;;;;;;8.99;100.00;100898.34;10347685;28;20435;-74
2022/04/23 01:37:17;;;;;;;21.35;9.73;;;;;;;8.89;100.00;100893.47;10345062;28;20073;-74
2022/04/23 01:42:19;;;;;;;13.40;9.38;;;;;;;8.91;100.00;100906.94;10343432;28;20030;-74
2022/04/23 01:47:20;;;;;;;17.33;10.43;;;;;;;8.83;100.00;100893.59;10304782;28;20051;-74
2022/04/23 01:52:20;;;;;;;18.30;10.45;;;;;;;8.79;100.00;100904.22;10321292;28;20027;-74
2022/04/23 01:57:20;;;;;;;17.23;10.77;;;;;;;8.54;100.00;100874.31;10309712;28;20031;-74
2022/04/23 02:02:22;;;;;;;17.85;10.38;;;;;;;8.58;100.00;100897.47;10320804;28;20046;-74
2022/04/23 02:07:22;;;;;;;17.33;11.50;;;;;;;8.43;100.00;100877.91;10313542;28;20039;-75
2022/04/23 02:12:24;;;;;;;15.43;10.18;;;;;;;8.33;100.00;100877.63;10295827;28;20038;-74
2022/04/23 02:17:39;;;;;;;15.68;11.40;;;;;;;8.28;100.00;100884.66;10316667;28;20046;-73
2022/04/23 02:22:40;;;;;;;20.75;10.95;;;;;;;8.34;100.00;100898.50;10351402;28;20201;-73
2022/04/23 02:27:42;;;;;;;16.60;11.45;;;;;;;8.30;100.00;100900.91;10351185;28;20062;-73
2022/04/23 02:32:43;;;;;;;18.20;11.32;;;;;;;8.20;100.00;100896.00;10353241;28;20031;-74
2022/04/23 02:37:45;;;;;;;20.48;12.45;;;;;;;8.15;100.00;100890.41;10335567;28;20395;-75
2022/04/23 02:42:46;;;;;;;18.15;10.63;;;;;;;8.11;100.00;100900.19;10352641;28;20404;-74
2022/04/23 02:47:48;;;;;;;14.98;10.63;;;;;;;8.09;100.00;100905.88;10350924;28;20039;-74
2022/04/23 02:52:48;;;;;;;16.88;11.68;;;;;;;8.04;100.00;100899.44;10351724;28;20061;-74
2022/04/23 02:57:49;;;;;;;15.90;11.65;;;;;;;8.03;100.00;100884.06;10351500;28;20100;-74
2022/04/23 03:02:49;;;;;;;15.25;10.60;;;;;;;7.93;100.00;100890.13;10351188;28;20041;-74
2022/04/23 03:07:50;;;;;;;16.50;10.52;;;;;;;7.92;100.00;100890.38;10351477;28;20045;-74
2022/04/23 03:12:51;;;;;;;15.38;11.10;;;;;;;7.89;100.00;100895.25;10351545;28;20042;-74
2022/04/23 03:18:02;;;;;;;18.70;11.15;;;;;;;7.77;100.00;100880.72;10348278;28;20046;-73
2022/04/23 03:23:03;;;;;;;19.65;12.00;;;;;;;7.77;100.00;100894.41;10334453;28;20038;-74
2022/04/23 03:28:04;;;;;;;16.13;11.45;;;;;;;7.77;100.00;100897.16;10299716;28;20174;-74
2022/04/23 03:33:04;;;;;;;14.57;10.77;;;;;;;7.74;100.00;100886.66;10324421;28;20102;-74
2022/04/23 03:38:05;;;;;;;16.75;10.98;;;;;;;7.67;100.00;100869.50;10325069;28;20047;-73
2022/04/23 03:43:05;;;;;;;15.40;10.25;;;;;;;7.79;100.00;100895.03;10325084;28;20125;-74
2022/04/23 03:48:06;;;;;;;24.02;10.75;;;;;;;7.75;100.00;100888.34;10310736;28;20031;-74
2022/04/23 03:53:07;;;;;;;17.42;11.65;;;;;;;7.70;100.00;100888.19;10309670;28;20027;-74
2022/04/23 03:58:08;;;;;;;13.48;10.27;;;;;;;7.71;100.00;100883.53;10322589;28;20118;-74
2022/04/23 04:03:08;;;;;;;18.50;11.50;;;;;;;7.71;100.00;100889.88;10307932;28;20061;-74
2022/04/23 04:08:12;;;;;;;17.65;10.77;;;;;;;7.63;100.00;100891.03;10309252;28;20074;-74
2022/04/23 04:13:13;;;;;;;16.35;10.80;;;;;;;7.61;100.00;100890.44;10307834;28;20050;-73
2022/04/23 04:18:14;;;;;;;15.70;11.55;;;;;;;7.55;100.00;100885.91;10308578;28;20047;-74
2022/04/23 04:23:15;;;;;;;15.05;11.40;;;;;;;7.51;100.00;100879.22;10323751;28;20807;-74
2022/04/23 04:28:16;;;;;;;16.88;11.48;;;;;;;7.45;100.00;100874.69;10308185;28;20085;-74
2022/04/23 04:33:16;;;;;;;13.38;10.75;;;;;;;7.51;100.00;100892.91;10306633;28;20098;-74
2022/04/23 04:38:17;;;;;;;12.93;10.25;;;;;;;7.38;100.00;100883.00;10308342;28;20039;-74
2022/04/23 04:43:17;;;;;;;15.20;10.75;;;;;;;7.38;100.00;100883.00;10306148;28;20060;-73
2022/04/23 04:48:18;;;;;;;15.05;10.75;;;;;;;7.45;100.00;100900.16;10305112;28;20046;-73
2022/04/23 04:53:18;;;;;;;15.25;11.10;;;;;;;7.38;100.00;100904.91;10317738;28;20042;-73
2022/04/23 04:58:18;;;;;;;14.02;9.85;;;;;;;7.47;100.00;100902.66;10346277;28;20046;-73
2022/04/23 05:03:19;;;;;;;15.57;10.93;;;;;;;7.41;100.00;100898.94;10346632;28;20049;-74
2022/04/23 05:08:19;;;;;;;15.40;9.85;;;;;;;7.48;100.00;100905.19;10346723;28;20034;-74
2022/04/23 05:13:20;;;;;;;13.68;9.18;;;;;;;7.54;100.00;100919.00;10347085;28;20050;-74
2022/04/23 05:18:21;;;;;;;13.05;9.57;;;;;;;7.56;100.00;100922.34;10347656;28;20126;-72
2022/04/23 05:23:21;;;;;;;16.30;10.00;;;;;;;7.66;100.00;100917.13;10314084;28;20069;-73
2022/04/23 05:28:22;;;;;;;15.90;9.77;;;;;;;7.70;100.00;100917.50;10343797;28;20495;-74
2022/04/23 05:33:22;;;;;;;12.95;9.75;;;;;;;7.78;100.00;100919.91;10344721;28;20037;-73
2022/04/23 05:38:23;;;;;;;15.32;9.85;;;;;;;7.91;100.00;100924.34;10346134;28;20034;-74
2022/04/23 05:43:24;;;;;;;14.38;9.57;;;;;;;8.04;100.00;100921.38;10346789;28;20093;-74
2022/04/23 05:48:24;;;;;;;15.00;9.18;;;;;;;8.32;100.00;100914.38;10345030;28;20366;-75
2022/04/23 05:53:24;;;;;;;12.30;9.35;;;;;;;8.63;100.00;100926.91;10346964;28;20142;-74
2022/04/23 05:58:25;;;;;;;13.02;9.20;;;;;;;8.84;100.00;100944.66;10342251;28;20066;-73
2022/04/23 06:03:25;;;;;;;13.63;9.25;;;;;;;8.93;100.00;100914.94;10341405;28;20038;-72
2022/04/23 06:08:26;;;;;;;11.48;8.88;;;;;;;9.18;100.00;100925.63;10345222;28;20038;-74
2022/04/23 06:13:26;;;;;;;12.52;9.60;;;;;;;9.32;100.00;100932.47;10345484;28;20065;-73
2022/04/23 06:18:27;;;;;;;14.35;9.13;;;;;;;9.52;100.00;100951.28;10344748;28;20522;-74
2022/04/23 06:23:27;;;;;;;12.98;8.55;;;;;;;9.71;100.00;100949.16;10346757;28;20058;-71
2022/04/23 06:28:28;;;;;;;10.95;8.07;;;;;;;9.77;100.00;100936.34;10345896;28;20026;-77
2022/04/23 06:33:28;;;;;;;11.45;8.40;;;;;;;10.03;100.00;100929.38;10309079;28;20027;-75
2022/04/23 06:38:29;;;;;;;10.70;8.35;;;;;;;10.30;100.00;100935.91;10325996;28;20466;-76
2022/04/23 06:43:29;;;;;;;12.18;8.38;;;;;;;10.47;100.00;100937.81;10345162;28;20030;-76
2022/04/23 06:48:30;;;;;;;9.73;7.63;;;;;;;10.77;100.00;100940.19;10346012;28;20127;-77
2022/04/23 06:53:30;;;;;;;12.73;7.90;;;;;;;10.82;100.00;100937.50;10353022;28;20027;-76
2022/04/23 06:58:31;;;;;;;12.68;8.95;;;;;;;11.07;100.00;100945.25;10350197;28;20038;-74
2022/04/23 07:03:31;;;;;;;12.20;8.73;;;;;;;11.17;100.00;100936.28;10351466;28;20030;-76
2022/04/23 07:08:32;;;;;;;12.50;9.02;;;;;;;11.41;100.00;100938.75;10386328;28;20045;-75
2022/04/23 07:13:33;;;;;;;14.48;8.40;;;;;;;11.55;100.00;100947.47;10390034;28;20033;-72
2022/04/23 07:18:35;;;;;;;11.43;8.00;;;;;;;11.70;100.00;100937.44;10391503;28;20064;-73
2022/04/23 07:28:55;;;;;;;13.32;8.73;;;;;;;11.94;100.00;100930.78;10385366;28;20034;-75
2022/04/23 07:39:14;;;;;;;10.23;7.68;;;;;;;12.17;100.00;100919.38;10385978;28;20033;-75
2022/04/23 07:44:15;;;;;;;10.88;8.10;;;;;;;12.21;100.00;100909.50;10386990;28;20053;-75
2022/04/23 07:49:15;;;;;;;9.98;7.30;;;;;;;12.47;100.00;100913.28;10391331;28;20033;-74
2022/04/23 07:54:16;;;;;;;10.77;8.57;;;;;;;12.61;100.00;100890.69;10369743;28;20046;-74
2022/04/23 07:59:16;;;;;;;9.75;7.88;;;;;;;12.90;100.00;100900.25;10347917;28;20042;-74
2022/04/23 08:04:17;;;;;;;11.45;8.43;;;;;;;13.04;100.00;100894.22;10384880;28;20033;-72
2022/04/23 08:09:17;;;;;;;11.43;8.13;;;;;;;13.09;97.49;100881.25;10389227;28;20048;-71
2022/04/23 08:14:18;;;;;;;10.85;8.25;;;;;;;13.29;97.20;100879.69;10388247;28;20080;-73
2022/04/23 08:19:18;;;;;;;12.77;8.52;;;;;;;13.46;94.66;100863.69;10387650;28;20046;-72
2022/04/23 08:24:19;;;;;;;13.25;8.70;;;;;;;13.68;93.64;100865.38;10381756;28;20030;-74
2022/04/23 08:34:39;;;;;;;11.20;8.57;;;;;;;13.76;87.89;100851.00;10372022;28;20125;-72
2022/04/23 08:39:42;;;;;;;12.65;9.48;;;;;;;14.03;87.95;100858.19;10388525;28;20034;-75
2022/04/23 08:44:43;;;;;;;12.55;8.63;;;;;;;14.14;84.47;100851.53;10382734;28;20037;-75
2022/04/23 08:49:43;;;;;;;9.68;7.80;;;;;;;14.18;81.76;100846.25;10369775;28;20090;-75
2022/04/23 08:54:45;;;;;;;12.35;8.38;;;;;;;14.47;83.96;100844.56;10344665;28;20093;-75
2022/04/23 08:59:48;;;;;;;10.65;7.47;;;;;;;14.43;80.08;100832.38;10344872;28;20026;-73
2022/04/23 09:04:49;;;;;;;10.50;7.10;;;;;;;14.56;76.83;100814.34;10326637;28;20038;-76
2022/04/23 09:09:51;;;;;;;10.68;7.78;;;;;;;14.73;75.76;100837.00;10347028;28;20031;-73
2022/04/23 09:14:52;;;;;;;13.32;8.55;;;;;;;14.82;78.78;100841.94;10344081;28;20038;-74
2022/04/23 09:25:14;;;;;;;12.20;7.95;;;;;;;14.85;76.89;100819.22;10384210;28;20506;-75
2022/04/23 09:30:14;;;;;;;10.00;7.97;;;;;;;15.07;77.38;100839.06;10368016;28;20021;-73
2022/04/23 09:35:14;;;;;;;10.43;7.80;;;;;;;15.20;73.86;100829.28;10386604;28;20049;-75
2022/04/23 09:40:22;;;;;;;11.73;8.63;;;;;;;15.23;76.57;100822.34;10385492;28;20455;-82
2022/04/23 09:45:27;;;;;;;13.88;8.52;;;;;;;15.43;73.06;100805.56;10368228;28;20025;-76
2022/04/23 09:50:27;;;;;;;9.68;8.25;;;;;;;15.50;73.48;100811.63;10380009;28;20089;-73
2022/04/23 09:55:27;;;;;;;12.55;8.55;;;;;;;15.75;74.48;100807.03;10363894;28;20096;-77
2022/04/23 10:00:28;;;;;;;11.70;7.72;;;;;;;15.84;71.32;100785.84;10380034;28;20022;-76
2022/04/23 10:05:28;;;;;;;8.95;8.05;;;;;;;15.79;69.73;100794.19;10368026;28;20041;-75
2022/04/23 10:10:30;;;;;;;10.43;7.63;;;;;;;16.04;70.09;100803.41;10352203;28;20033;-75
2022/04/23 10:15:32;;;;;;;13.65;8.07;;;;;;;16.23;69.72;100768.22;10385641;28;20049;-75
2022/04/23 10:20:32;;;;;;;8.73;7.50;;;;;;;16.54;69.74;100781.75;10379608;28;20046;-74
2022/04/23 10:25:45;;;;;;;11.52;7.15;;;;;;;16.77;68.76;100787.59;10341191;28;20015;-74
2022/04/23 10:30:46;;;;;;;10.25;7.05;;;;;;;16.85;66.40;100757.19;10351353;28;20030;-75
2022/04/23 10:36:08;;;;;;;11.55;7.07;;;;;;;17.13;64.38;100752.59;10351152;28;20046;-75
2022/04/23 10:41:10;;;;;;;10.00;7.00;;;;;;;17.17;64.75;100765.91;10349769;28;20054;-75
2022/04/23 10:46:35;;;;;;;11.45;7.18;;;;;;;17.31;61.86;100756.50;10350710;28;20030;-75
2022/04/23 10:51:43;;;;;;;10.02;6.70;;;;;;;17.53;61.64;100741.13;10340870;28;20044;-74
2022/04/23 10:56:47;;;;;;;10.15;6.45;;;;;;;17.56;60.69;100748.84;10350043;28;20033;-73
2022/04/23 11:01:48;;;;;;;9.10;6.93;;;;;;;17.63;63.59;100746.53;10349387;28;20043;-73
2022/04/23 11:12:23;;;;;;;13.55;7.30;;;;;;;17.90;59.53;100736.59;10348297;28;20529;-73
2022/04/23 11:17:30;;;;;;;10.40;7.10;;;;;;;18.21;61.38;100761.06;10350103;28;20042;-73
2022/04/23 11:22:30;;;;;;;9.55;6.07;;;;;;;18.19;59.20;100747.47;10348023;28;20514;-73
2022/04/23 11:27:32;;;;;;;10.18;5.90;;;;;;;18.57;58.21;100741.66;10348835;28;20034;-72
2022/04/23 11:32:36;;;;;;;8.05;5.80;;;;;;;18.81;57.36;100733.09;10348416;28;20038;-73
2022/04/23 11:37:37;;;;;;;10.02;5.95;;;;;;;18.97;55.82;100724.38;10348441;28;20034;-73
2022/04/23 11:42:45;;;;;;;7.07;5.60;;;;;;;18.64;54.51;100705.81;10351666;28;20043;-73
2022/04/23 11:47:45;;;;;;;6.85;5.60;;;;;;;18.84;53.99;100717.69;10340532;28;20039;-73
2022/04/23 11:52:57;;;;;;;8.30;4.93;;;;;;;19.34;55.45;100700.84;10345772;28;20474;-73
2022/04/23 11:58:04;;;;;;;9.98;5.15;;;;;;;19.88;52.25;100704.47;10345383;28;20081;-71
2022/04/23 12:03:06;;;;;;;6.10;5.00;;;;;;;20.28;51.25;100696.09;10367121;28;20042;-71
2022/04/23 12:08:06;;;;;;;9.32;4.75;;;;;;;20.62;49.16;100690.94;10388619;28;20113;-71
2022/04/23 12:13:07;;;;;;;7.60;4.88;;;;;;;21.07;46.92;100671.88;10368834;28;20288;-72
2022/04/23 12:18:14;;;;;;;5.72;4.50;;;;;;;21.69;46.44;100679.03;10323832;28;20055;-72
2022/04/23 12:23:15;;;;;;;7.47;5.00;;;;;;;21.77;44.29;100668.97;10307739;28;20062;-73
2022/04/23 12:44:20;;;;;;;4.43;3.80;;;;;;;22.04;42.29;100636.03;10320948;28;20045;-74
2022/04/23 12:49:23;;;;;;;5.18;3.97;;;;;;;22.41;41.28;100637.16;10290029;28;20042;-75
2022/04/23 12:54:24;;;;;;;5.85;4.07;;;;;;;22.30;40.29;100605.88;10307579;28;20083;-72
2022/04/23 12:59:24;;;;;;;7.63;3.70;;;;;;;22.43;41.01;100622.78;10341782;28;20042;-76
2022/04/23 13:04:25;;;;;;;5.65;4.63;;;;;;;22.50;40.82;100625.88;10346634;28;20042;-75
2022/04/23 13:09:25;;;;;;;5.50;3.95;;;;;;;22.45;40.24;100612.03;10344366;28;20534;-75
2022/04/23 13:14:26;;;;;;;6.18;3.65;;;;;;;22.50;40.03;100603.44;10345449;28;20026;-74
2022/04/23 13:19:26;;;;;;;5.28;3.90;;;;;;;22.40;38.69;100592.63;10347029;28;20054;-75
2022/04/23 13:24:27;;;;;;;8.55;3.55;;;;;;;22.49;38.43;100598.97;10377878;28;20034;-75
2022/04/23 13:29:28;;;;;;;5.28;3.13;;;;;;;22.45;39.42;100601.66;10386590;28;20026;-74
2022/04/23 13:34:28;;;;;;;3.58;2.83;;;;;;;22.61;37.55;100575.78;10376662;28;20565;-74
2022/04/23 13:39:29;;;;;;;3.88;3.22;;;;;;;22.42;40.74;100576.25;10345704;28;20033;-70
2022/04/23 13:44:29;;;;;;;4.00;2.75;;;;;;;21.94;39.34;100576.38;10344692;28;20069;-74
2022/04/23 13:49:30;;;;;;;5.90;2.95;;;;;;;21.90;39.25;100569.81;10326740;28;20035;-74
2022/04/23 13:54:31;;;;;;;6.10;3.35;;;;;;;21.77;39.03;100573.69;10343884;28;20022;-66
2022/04/23 13:59:35;;;;;;;5.07;2.75;;;;;;;21.91;38.37;100553.81;10341398;28;20035;-70
2022/04/23 14:10:07;;;;;;;5.80;3.15;;;;;;;21.79;38.73;100554.56;10351106;28;20081;-68
2022/04/23 14:15:07;;;;;;;6.47;3.13;;;;;;;21.82;39.83;100556.66;10350134;28;20061;-73
2022/04/23 14:20:08;;;;;;;3.05;2.75;;;;;;;22.16;40.11;100555.63;10353827;28;20042;-72
2022/04/23 14:25:09;;;;;;;5.38;3.13;;;;;;;22.05;37.28;100517.13;10325572;28;20122;-74
2022/04/23 14:30:10;;;;;;;5.22;2.65;;;;;;;22.01;39.78;100547.00;10311679;28;20026;-70
2022/04/23 14:35:10;;;;;;;3.45;2.90;;;;;;;22.40;37.49;100506.47;10312690;28;20043;-70
2022/04/23 14:40:11;;;;;;;9.15;3.03;;;;;;;22.81;37.80;100518.00;10312011;28;20038;-70
2022/04/23 14:45:17;;;;;;;4.82;3.00;;;;;;;23.33;37.70;100501.38;10339207;28;20026;-74
2022/04/23 14:50:18;;;;;;;;;;;;;;;23.33;37.16;100506.19;10351508;28;20065;-72
2022/04/23 14:55:18;;;;;;;8.40;3.30;;;;;;;23.39;35.86;100499.16;10324813;28;19925;-73
2022/04/23 15:00:19;;;;;;;4.72;2.50;;;;;;;23.85;35.69;100494.25;10310817;28;20927;-73
2022/04/23 15:05:19;;;;;;;3.40;2.22;;;;;;;23.99;35.74;100493.06;10308975;28;20035;-69
2022/04/23 15:10:20;;;;;;;4.10;2.75;;;;;;;24.38;36.03;100478.16;10310628;28;20027;-71
2022/04/23 15:15:20;;;;;;;4.68;3.13;;;;;;;24.81;36.11;100477.78;10309610;28;20089;-73
2022/04/23 15:20:21;;;;;;;5.60;2.75;;;;;;;25.49;34.35;100468.28;10309102;28;20031;-69
2022/04/23 15:25:22;;;;;;;4.50;2.30;;;;;;;25.24;33.53;100468.47;10309341;28;20046;-78
2022/04/23 15:30:26;;;;;;;7.65;2.40;;;;;;;24.92;33.79;100464.78;10310244;28;20042;-71
2022/04/23 15:35:27;;;;;;;5.88;2.80;;;;;;;25.12;33.69;100460.88;10310972;28;20035;-72
2022/04/23 15:40:28;;;;;;;4.88;2.78;;;;;;;25.22;34.22;100459.56;10310640;28;20050;-71
2022/04/23 15:45:28;;;;;;;4.07;2.60;;;;;;;25.18;34.11;100424.81;10292534;28;20121;-72
2022/04/23 15:50:29;;;;;;;4.22;2.88;;;;;;;25.39;33.76;100475.28;10324596;28;20281;-72
2022/04/23 15:55:29;;;;;;;4.80;2.40;;;;;;;25.49;32.15;100452.16;10324414;28;20041;-70
2022/04/23 16:00:30;;;;;;;3.13;2.10;;;;;;;25.53;33.46;100452.25;10309755;28;20034;-73
2022/04/23 16:05:31;;;;;;;3.45;2.10;;;;;;;25.64;32.29;100453.31;10312637;28;20313;-71
2022/04/23 16:10:31;;;;;;;3.33;2.40;;;;;;;25.39;32.82;100458.38;10348509;28;20034;-72
2022/04/23 16:15:32;;;;;;;2.40;2.05;;;;;;;25.01;33.18;100448.50;10347278;28;20046;-72
2022/04/23 16:20:32;;;;;;;5.75;2.58;;;;;;;25.63;33.11;100460.13;10347473;28;20322;-72
2022/04/23 16:25:33;;;;;;;6.47;2.78;;;;;;;25.22;32.75;100448.28;10347120;28;20183;-71
2022/04/23 16:30:34;;;;;;;3.63;2.60;;;;;;;25.16;34.06;100453.34;10327528;28;20372;-73
2022/04/23 16:35:34;;;;;;;6.65;2.55;;;;;;;24.69;33.24;100454.13;10344759;28;20474;-71
2022/04/23 16:51:13;;;;;;;5.40;2.28;;;;;;;24.90;33.89;100458.69;10345760;28;20117;-71
2022/04/23 16:56:14;;;;;;;5.78;3.38;;;;;;;24.35;33.74;100456.38;10341624;28;20034;-70
2022/04/23 17:01:14;;;;;;;2.97;2.67;;;;;;;23.19;36.06;100472.00;10325283;28;20039;-71
2022/04/23 17:06:17;;;;;;;3.13;2.17;;;;;;;21.98;37.57;100480.44;10305440;28;20050;-70
2022/04/23 17:11:17;;;;;;;4.75;2.28;;;;;;;21.05;38.41;100486.66;10303360;28;20034;-69
2022/04/23 17:16:18;;;;;;;4.40;3.53;;;;;;;19.94;40.34;100496.44;10321298;28;20051;-70
2022/04/23 17:21:19;;;;;;;3.17;2.72;;;;;;;18.58;42.30;100455.34;10305740;28;20053;-70
2022/04/23 17:26:20;;;;;;;3.08;2.78;;;;;;;18.04;44.48;100497.88;10303549;28;20062;-70
2022/04/23 17:31:20;;;;;;;7.68;2.53;;;;;;;17.62;46.03;100518.56;10321555;28;20590;-69
2022/04/23 17:36:21;;;;;;;3.10;2.78;;;;;;;17.11;48.03;100525.94;10305702;28;20026;-69
2022/04/23 17:41:22;;;;;;;3.50;2.88;;;;;;;16.58;48.74;100524.34;10327272;28;20041;-70
2022/04/23 17:46:22;;;;;;;4.30;3.03;;;;;;;16.15;50.08;100518.91;10334477;28;20038;-70
2022/04/23 17:51:24;;;;;;;5.18;3.38;;;;;;;15.97;50.23;100536.38;10319457;28;20068;-72
2022/04/23 17:56:24;;;;;;;4.65;3.38;;;;;;;15.64;50.46;100522.34;10345238;28;20031;-72
2022/04/23 18:12:06;;;;;;;6.43;2.80;;;;;;;15.14;53.86;100548.44;10342391;28;20045;-73
2022/04/23 18:17:06;;;;;;;5.50;3.97;;;;;;;14.96;53.97;100551.94;10345456;28;20039;-72
2022/04/23 18:22:08;;;;;;;5.38;3.40;;;;;;;14.76;55.86;100569.59;10344343;28;20054;-72
2022/04/23 18:27:09;;;;;;;6.22;4.03;;;;;;;14.59;57.86;100581.06;10343468;28;20037;-72
2022/04/23 18:32:10;;;;;;;6.07;4.22;;;;;;;14.35;59.38;100580.94;10343148;28;20051;-72
2022/04/23 18:37:11;;;;;;;5.75;4.68;;;;;;;14.13;61.59;100595.16;10343808;28;20054;-73
2022/04/23 18:42:12;;;;;;;7.65;6.22;;;;;;;13.93;64.63;100599.72;10343372;28;20065;-72
2022/04/23 18:47:12;;;;;;;9.05;7.50;;;;;;;13.75;67.86;100611.41;10348019;28;20042;-73
2022/04/23 18:52:12;;;;;;;13.35;8.80;;;;;;;13.55;69.45;100605.94;10351365;28;20035;-73
2022/04/23 18:57:13;;;;;;;16.13;9.07;;;;;;;13.37;71.84;100616.47;10351454;28;20034;-72
2022/04/23 19:02:13;;;;;;;13.73;9.10;;;;;;;13.19;73.57;100619.78;10351141;28;20030;-73
2022/04/23 19:07:14;;;;;;;12.05;9.07;;;;;;;13.02;74.72;100625.59;10350072;28;20022;-72
2022/04/23 19:12:14;;;;;;;11.73;9.10;;;;;;;12.79;76.82;100611.22;10349743;28;20038;-72
2022/04/23 19:17:15;;;;;;;12.60;9.90;;;;;;;12.57;78.50;100613.41;10350327;28;20422;-72
2022/04/23 19:27:44;;;;;;;13.23;9.98;;;;;;;12.32;79.95;100617.81;10351193;28;20053;-73
2022/04/23 19:32:44;;;;;;;13.05;9.57;;;;;;;12.21;81.76;100632.66;10349912;28;20102;-72
2022/04/23 19:37:45;;;;;;;12.88;10.07;;;;;;;12.10;82.67;100634.56;10350116;28;20037;-73
2022/04/23 19:42:45;;;;;;;11.45;9.73;;;;;;;12.08;83.28;100656.91;10349850;28;20065;-72
2022/04/23 19:47:46;;;;;;;13.68;10.73;;;;;;;11.95;83.78;100645.53;10350730;28;20030;-73
2022/04/23 19:52:46;;;;;;;15.73;11.32;;;;;;;11.90;84.45;100652.69;10350877;28;20023;-71
2022/04/23 19:57:47;;;;;;;13.73;10.77;;;;;;;11.70;85.09;100633.25;10349304;28;20031;-72
2022/04/23 20:02:48;;;;;;;14.70;10.65;;;;;;;11.73;85.99;100648.44;10349976;28;20073;-72
2022/04/23 20:07:49;;;;;;;13.23;10.55;;;;;;;11.65;86.36;100658.03;10339572;28;20081;-72
2022/04/23 20:12:49;;;;;;;15.27;10.32;;;;;;;11.55;87.15;100657.97;10306342;28;20039;-72
2022/04/23 20:17:50;;;;;;;12.13;9.88;;;;;;;11.43;87.76;100656.25;10309397;28;20047;-72
2022/04/23 20:22:50;;;;;;;14.88;11.40;;;;;;;11.38;88.17;100667.22;10338799;28;20108;-72
2022/04/23 20:27:51;;;;;;;11.98;9.43;;;;;;;11.29;89.44;100674.34;10346346;28;20030;-73
2022/04/23 20:32:52;;;;;;;17.40;10.48;;;;;;;11.20;90.13;100681.41;10347364;28;20034;-72
2022/04/23 20:43:12;;;;;;;15.88;10.93;;;;;;;10.91;93.04;100676.22;10346006;28;20057;-73
2022/04/23 20:48:12;;;;;;;17.20;11.27;;;;;;;10.81;93.03;100670.59;10347750;28;20026;-72
2022/04/23 20:53:16;;;;;;;15.32;10.50;;;;;;;10.15;94.07;100574.41;10345400;28;20057;-72
2022/04/23 20:58:17;;;;;;;14.85;10.00;;;;;;;10.67;95.11;100673.81;10344402;28;20038;-72
2022/04/23 21:03:18;;;;;;;16.95;10.15;;;;;;;10.46;95.89;100659.00;10345417;28;20041;-72
2022/04/23 21:08:19;;;;;;;12.85;9.32;;;;;;;10.46;96.56;100672.75;10345620;28;20022;-72
2022/04/23 21:13:22;;;;;;;15.23;10.20;;;;;;;10.32;98.05;100668.75;10345903;28;20026;-73
2022/04/23 21:18:23;;;;;;;9.82;8.40;;;;;;;10.29;97.96;100675.59;10345585;28;20129;-72
2022/04/23 21:23:25;;;;;;;10.82;8.07;;;;;;;10.21;98.61;100687.03;10347371;28;20487;-72
2022/04/23 21:28:26;;;;;;;13.55;8.32;;;;;;;10.17;96.84;100683.13;10345152;28;20034;-72
2022/04/23 21:33:26;;;;;;;10.88;7.43;;;;;;;10.04;95.29;100662.31;10317517;28;20122;-71
2022/04/23 21:38:27;;;;;;;11.43;7.25;;;;;;;9.99;94.09;100654.00;10331672;28;20050;-72
2022/04/23 21:48:51;;;;;;;7.90;5.75;;;;;;;9.98;92.01;100674.34;10354738;28;20042;-72
2022/04/23 21:53:51;;;;;;;10.20;5.63;;;;;;;9.94;92.80;100672.34;10345236;28;20034;-73
2022/04/23 21:58:52;;;;;;;7.60;5.95;;;;;;;9.86;93.31;100677.22;10324761;28;20035;-71
2022/04/23 22:03:52;;;;;;;9.65;7.78;;;;;;;9.70;93.05;100658.84;10332051;28;20045;-73
2022/04/23 22:08:53;;;;;;;13.63;7.13;;;;;;;9.67;93.99;100670.34;10345260;28;20054;-71
2022/04/23 22:13:53;;;;;;;11.00;6.38;;;;;;;9.49;95.57;100661.31;10346836;28;20030;-71
2022/04/23 22:18:54;;;;;;;10.43;7.05;;;;;;;9.46;98.18;100672.78;10346362;28;20057;-72
2022/04/23 22:23:54;;;;;;;8.73;6.18;;;;;;;9.31;98.76;100658.84;10351584;28;20110;-71
2022/04/23 22:28:55;;;;;;;10.90;6.40;;;;;;;9.34;99.09;100669.31;10339839;28;20081;-72
2022/04/23 22:33:55;;;;;;;9.32;5.47;;;;;;;9.28;99.58;100679.41;10321687;28;20041;-72
2022/04/23 22:38:56;;;;;;;7.55;5.95;;;;;;;9.24;99.62;100674.63;10313229;28;20054;-72
2022/04/23 22:43:56;;;;;;;6.50;5.22;;;;;;;9.16;100.00;100666.84;10313333;28;20031;-72
2022/04/23 22:48:57;;;;;;;9.95;6.40;;;;;;;8.98;100.00;100655.00;10313267;28;20070;-72
2022/04/23 22:53:57;;;;;;;8.45;6.28;;;;;;;9.01;100.00;100676.50;10311437;28;20042;-72
2022/04/23 22:58:57;;;;;;;9.43;6.57;;;;;;;8.82;100.00;100666.81;10339701;28;20118;-72
2022/04/23 23:03:58;;;;;;;9.35;5.90;;;;;;;8.85;100.00;100691.03;10352140;28;20049;-72
2022/04/23 23:08:58;;;;;;;7.72;5.95;;;;;;;8.79;100.00;100689.28;10352531;28;20039;-71
2022/04/23 23:13:59;;;;;;;11.13;6.35;;;;;;;8.61;100.00;100671.94;10352507;28;20394;-72
2022/04/23 23:18:59;;;;;;;10.20;6.85;;;;;;;8.61;100.00;100682.91;10325648;28;20503;-72
2022/04/23 23:24:00;;;;;;;7.78;5.57;;;;;;;8.47;100.00;100665.94;10309788;28;20066;-72
2022/04/23 23:29:00;;;;;;;8.55;6.10;;;;;;;8.43;100.00;100673.00;10313421;28;20031;-72
2022/04/23 23:34:01;;;;;;;9.18;5.43;;;;;;;8.33;100.00;100669.16;10309391;28;20043;-72
2022/04/23 23:39:01;;;;;;;19.65;6.85;;;;;;;8.34;100.00;100679.06;10310047;28;20329;-72
2022/04/23 23:44:02;;;;;;;9.70;6.22;;;;;;;8.29;100.00;100680.63;10311209;28;20042;-72
2022/04/23 23:49:02;;;;;;;11.85;6.07;;;;;;;8.22;100.00;100674.44;10310105;28;20031;-72
2022/04/23 23:54:07;;;;;;;7.40;5.13;;;;;;;8.20;100.00;100675.78;10308121;28;20102;-72
2022/04/23 23:59:07;;;;;;;7.53;5.63;;;;;;;7.99;100.00;100644.38;10307157;28;20046;-72
